NFTL/HPA METAR and TAF weather

Enter ICAO airport designator
Station Type Date Time Source
NFTL METAR 2020/08/05 12:00 UTC NOAA

NFTL 051200Z 12004KT 9999 SCT017 22/20 Q1015


Station Type Date Time Source
NFTL Decoded METAR 2020/08/05 12:00 UTC NOAA

Haapai, Tonga (NFTL) 19-48S 174-21W 3M
Aug 05, 2020 - 08:00 AM EDT / 2020.08.05 1200 UTC
Wind: from the ESE (120 degrees) at 5 MPH (4 KT):0
Visibility: greater than 7 mile(s):0
Sky conditions: partly cloudy
Temperature: 71 F (22 C)
Dew Point: 68 F (20 C)
Relative Humidity: 88%
Pressure (altimeter): 29.97 in. Hg (1015 hPa)
ob: NFTL 051200Z 12004KT 9999 SCT017 22/20 Q1015
cycle: 12

Station Type Date Time Source
NFTL TAF 2018/02/21 17:36 UTC NOAA

TAF NFTL 211605Z 2117/2208 12010KT 9999 SCT018

Example: see airport list